Time;durP1;ratioP1;P1;durP2;ratioP2;P2;SDS_P1;SDS_P2;PMS_P1;PMS_P2;Temp;Humidity;BMP_temperature;BMP_pressure;BME280_temperature;BME280_humidity;BME280_pressure;Samples;Min_cycle;Max_cycle;Signal;HPM_P1;HPM_P2
2021/03/23 00:01:04;;;;;;;11.73;9.38;;;;;;;8.91;100.00;102801.34;5050934;28;20037;-73
2021/03/23 00:03:36;;;;;;;11.95;8.07;;;;;;;8.92;100.00;102808.47;5050950;28;20025;-72
2021/03/23 00:06:02;;;;;;;13.57;8.20;;;;;;;8.88;100.00;102799.00;5050871;28;20044;-72
2021/03/23 00:08:30;;;;;;;11.07;7.53;;;;;;;8.84;100.00;102794.91;5051285;28;20048;-72
2021/03/23 00:10:58;;;;;;;9.38;7.45;;;;;;;8.83;100.00;102787.78;5050795;28;20111;-72
2021/03/23 00:13:24;;;;;;;9.32;7.30;;;;;;;8.84;100.00;102789.47;5050676;28;20029;-72
2021/03/23 00:15:50;;;;;;;9.52;7.32;;;;;;;8.84;100.00;102781.28;5050774;28;20037;-72
2021/03/23 00:18:17;;;;;;;9.10;7.15;;;;;;;8.83;100.00;102787.78;5050752;28;20479;-72
2021/03/23 00:20:43;;;;;;;8.40;7.45;;;;;;;8.82;100.00;102781.47;5050465;28;20402;-72
2021/03/23 00:23:10;;;;;;;10.10;8.02;;;;;;;8.83;100.00;102782.31;5049187;28;20079;-72
2021/03/23 00:25:36;;;;;;;10.45;7.20;;;;;;;8.81;100.00;102773.47;5050394;28;20476;-72
2021/03/23 00:28:02;;;;;;;11.25;8.50;;;;;;;8.80;100.00;102771.78;5050570;28;20094;-72
2021/03/23 00:30:28;;;;;;;14.18;9.27;;;;;;;8.81;100.00;102781.66;5049372;28;20495;-72
2021/03/23 00:32:54;;;;;;;13.02;8.80;;;;;;;8.81;100.00;102778.94;5050572;28;20056;-72
2021/03/23 00:35:20;;;;;;;12.43;9.52;;;;;;;8.81;100.00;102776.22;5050548;28;20049;-72
2021/03/23 00:37:52;;;;;;;12.48;9.50;;;;;;;8.80;100.00;102769.06;5050633;28;20121;-72
2021/03/23 00:40:21;;;;;;;13.02;9.55;;;;;;;8.81;100.00;102774.31;5050445;28;20071;-72
2021/03/23 00:42:47;;;;;;;12.18;9.50;;;;;;;8.82;100.00;102778.75;5050896;28;20037;-72
2021/03/23 00:45:14;;;;;;;13.75;9.40;;;;;;;8.82;100.00;102775.16;5050403;28;20033;-72
2021/03/23 00:47:40;;;;;;;13.63;9.40;;;;;;;8.80;100.00;102766.34;5049109;28;20098;-72
2021/03/23 00:50:07;;;;;;;14.35;9.98;;;;;;;8.79;100.00;102770.09;5050401;28;20399;-72
2021/03/23 00:52:33;;;;;;;12.13;9.52;;;;;;;8.78;100.00;102763.81;5049286;28;20456;-72
2021/03/23 00:54:58;;;;;;;15.63;9.77;;;;;;;8.75;100.00;102762.28;5048841;28;20128;-72
2021/03/23 00:57:24;;;;;;;19.45;10.20;;;;;;;8.75;100.00;102765.03;5049206;28;20045;-72
2021/03/23 00:59:50;;;;;;;14.85;10.00;;;;;;;8.73;100.00;102750.72;5050429;28;20033;-72
2021/03/23 01:02:15;;;;;;;12.82;9.68;;;;;;;8.70;100.00;102751.09;5050309;28;20065;-72
2021/03/23 01:04:41;;;;;;;13.07;10.13;;;;;;;8.70;100.00;102750.25;5050117;28;20041;-72
2021/03/23 01:07:26;;;;;;;13.80;10.00;;;;;;;8.68;100.00;102747.72;5050295;28;20438;-72
2021/03/23 01:10:13;;;;;;;14.63;10.13;;;;;;;8.64;100.00;102740.91;5050568;28;20414;-72
2021/03/23 01:12:39;;;;;;;16.95;10.95;;;;;;;8.62;100.00;102737.53;5048834;28;20043;-72
2021/03/23 01:15:07;;;;;;;13.48;9.82;;;;;;;8.58;100.00;102730.78;5050172;28;20040;-72
2021/03/23 01:17:33;;;;;;;16.65;11.43;;;;;;;8.55;100.00;102731.13;5050215;28;20033;-72
2021/03/23 01:19:58;;;;;;;15.70;10.98;;;;;;;8.53;100.00;102735.94;5048887;28;20552;-72
2021/03/23 01:22:24;;;;;;;19.02;11.82;;;;;;;8.48;100.00;102738.31;5050426;28;20123;-71
2021/03/23 01:24:50;;;;;;;19.25;11.05;;;;;;;8.44;100.00;102726.09;5049840;28;20064;-72
2021/03/23 01:27:16;;;;;;;18.45;11.55;;;;;;;8.40;100.00;102724.78;5050169;28;20491;-72
2021/03/23 01:29:41;;;;;;;16.35;10.80;;;;;;;8.37;100.00;102723.28;5050050;28;20045;-72
2021/03/23 01:32:07;;;;;;;15.68;11.30;;;;;;;8.35;100.00;102719.06;5051756;28;20120;-72
2021/03/23 01:34:33;;;;;;;14.20;11.07;;;;;;;8.31;100.00;102723.09;5053713;28;20453;-72
2021/03/23 01:36:59;;;;;;;15.90;11.10;;;;;;;8.25;100.00;102718.41;5052284;28;20075;-72
2021/03/23 01:39:24;;;;;;;14.15;10.70;;;;;;;8.21;100.00;102711.63;5053765;28;20049;-72
2021/03/23 01:41:50;;;;;;;13.57;10.50;;;;;;;8.15;100.00;102718.63;5052128;28;20136;-72
2021/03/23 01:44:16;;;;;;;14.00;10.25;;;;;;;8.11;100.00;102709.97;5053335;28;20044;-72
2021/03/23 01:46:50;;;;;;;13.80;11.13;;;;;;;8.06;100.00;102709.66;5053686;28;20429;-72
2021/03/23 01:49:29;;;;;;;16.13;11.70;;;;;;;8.03;100.00;102712.75;5053374;28;20029;-72
2021/03/23 01:51:58;;;;;;;15.27;10.85;;;;;;;8.00;100.00;102710.41;5052047;28;20037;-72
2021/03/23 01:54:29;;;;;;;17.95;11.77;;;;;;;7.98;100.00;102712.44;5051771;28;20572;-72
2021/03/23 01:56:59;;;;;;;15.05;11.75;;;;;;;7.99;100.00;102711.44;5053294;28;20139;-72
2021/03/23 01:59:26;;;;;;;17.27;11.55;;;;;;;7.99;100.00;102692.38;5053238;28;20044;-72
2021/03/23 02:01:56;;;;;;;16.67;11.13;;;;;;;8.02;100.00;102692.00;5053117;28;20044;-72
2021/03/23 02:04:22;;;;;;;19.15;11.93;;;;;;;8.03;100.00;102701.88;5053016;28;20041;-72
2021/03/23 02:06:49;;;;;;;14.52;11.75;;;;;;;8.05;100.00;102701.69;5035219;28;20037;-72
2021/03/23 02:09:21;;;;;;;18.35;11.93;;;;;;;8.07;100.00;102705.06;5051632;28;20087;-72
2021/03/23 02:11:52;;;;;;;26.80;11.98;;;;;;;8.09;100.00;102697.56;5052823;28;20041;-72
2021/03/23 02:14:20;;;;;;;14.32;11.93;;;;;;;8.11;100.00;102699.09;5052969;28;20033;-72
2021/03/23 02:16:47;;;;;;;18.33;12.57;;;;;;;8.13;100.00;102705.19;5051669;28;20108;-72
2021/03/23 02:19:17;;;;;;;18.65;12.45;;;;;;;8.15;100.00;102702.28;5052885;28;20036;-72
2021/03/23 02:21:43;;;;;;;23.20;13.43;;;;;;;8.17;100.00;102700.25;5052782;28;20024;-72
2021/03/23 02:24:12;;;;;;;18.75;13.60;;;;;;;8.19;100.00;102700.06;5052462;28;20430;-72
2021/03/23 02:26:38;;;;;;;21.00;12.43;;;;;;;8.22;100.00;102691.53;5052849;28;20081;-72
2021/03/23 02:29:11;;;;;;;20.77;12.70;;;;;;;8.22;100.00;102706.00;5052640;28;20437;-72
2021/03/23 02:31:39;;;;;;;19.63;12.52;;;;;;;8.25;100.00;102696.63;5052757;28;20099;-72
2021/03/23 02:34:08;;;;;;;24.73;13.23;;;;;;;8.27;100.00;102694.56;5052439;28;20032;-72
2021/03/23 02:36:35;;;;;;;16.75;12.63;;;;;;;8.28;100.00;102694.38;5052564;28;20045;-72
2021/03/23 02:39:01;;;;;;;15.75;12.23;;;;;;;8.31;100.00;102698.59;5052502;28;20037;-72
2021/03/23 02:41:26;;;;;;;20.08;13.05;;;;;;;8.32;100.00;102687.53;5052523;28;20040;-72
2021/03/23 02:43:53;;;;;;;19.92;13.50;;;;;;;8.35;100.00;102683.66;5052199;28;20369;-72
2021/03/23 02:46:20;;;;;;;19.40;13.48;;;;;;;8.37;100.00;102697.94;5052298;28;20043;-72
2021/03/23 02:48:46;;;;;;;20.05;13.40;;;;;;;8.38;100.00;102691.44;5050757;28;20064;-72
2021/03/23 02:51:14;;;;;;;20.02;12.32;;;;;;;8.34;100.00;102690.97;5052450;28;20551;-72
2021/03/23 02:53:41;;;;;;;18.85;13.45;;;;;;;8.36;100.00;102693.50;5052081;28;20037;-72
2021/03/23 02:56:07;;;;;;;20.73;13.32;;;;;;;8.34;100.00;102690.13;5052369;28;20066;-72
2021/03/23 02:58:37;;;;;;;18.85;12.93;;;;;;;8.35;100.00;102691.81;5050656;28;20492;-72
2021/03/23 03:01:04;;;;;;;19.67;13.40;;;;;;;8.34;100.00;102690.97;5052040;28;20079;-72
2021/03/23 03:03:30;;;;;;;18.10;13.43;;;;;;;8.32;100.00;102692.13;5051818;28;20051;-72
2021/03/23 03:05:55;;;;;;;18.27;12.88;;;;;;;8.28;100.00;102685.34;5051953;28;20033;-72
2021/03/23 03:08:22;;;;;;;22.02;12.80;;;;;;;8.24;100.00;102689.47;5051926;28;20041;-73
2021/03/23 03:10:48;;;;;;;19.77;12.40;;;;;;;8.20;100.00;102686.28;5051919;28;20036;-72
2021/03/23 03:13:13;;;;;;;19.40;13.05;;;;;;;8.17;100.00;102686.66;5051705;28;20033;-72
2021/03/23 03:15:40;;;;;;;17.13;13.10;;;;;;;8.15;100.00;102681.34;5050590;28;20490;-72
2021/03/23 03:18:06;;;;;;;17.00;12.20;;;;;;;8.12;100.00;102681.72;5051582;28;20033;-72
2021/03/23 03:20:32;;;;;;;19.40;12.90;;;;;;;8.11;100.00;102680.03;5051629;28;20485;-72
2021/03/23 03:22:57;;;;;;;20.42;12.63;;;;;;;8.08;100.00;102682.28;5050210;28;20517;-72
2021/03/23 03:25:23;;;;;;;16.80;11.70;;;;;;;8.08;100.00;102677.69;5051275;28;20501;-72
2021/03/23 03:27:49;;;;;;;15.48;12.13;;;;;;;8.05;100.00;102675.31;5051490;28;20032;-72
2021/03/23 03:30:26;;;;;;;19.70;13.18;;;;;;;8.03;100.00;102666.50;5051577;28;20436;-72
2021/03/23 03:32:53;;;;;;;22.27;12.65;;;;;;;8.02;100.00;102669.41;5051576;28;20041;-72
2021/03/23 03:35:20;;;;;;;17.95;12.77;;;;;;;8.01;100.00;102667.72;5051298;28;20479;-72
2021/03/23 03:37:46;;;;;;;22.58;12.93;;;;;;;8.00;100.00;102669.59;5051387;28;20066;-72
2021/03/23 03:40:19;;;;;;;17.20;12.65;;;;;;;8.01;100.00;102665.84;5050142;28;20043;-72
2021/03/23 03:42:45;;;;;;;21.17;13.15;;;;;;;8.03;100.00;102668.38;5051328;28;20558;-72
2021/03/23 03:45:12;;;;;;;16.85;13.10;;;;;;;8.04;100.00;102661.91;5049733;28;20048;-72
2021/03/23 03:47:39;;;;;;;16.40;12.35;;;;;;;8.05;100.00;102669.03;5051242;28;20036;-72
2021/03/23 03:50:06;;;;;;;19.80;12.20;;;;;;;8.05;100.00;102661.72;5051157;28;20138;-72
2021/03/23 03:52:32;;;;;;;17.77;12.90;;;;;;;8.07;100.00;102662.38;5051040;28;20131;-72
2021/03/23 03:54:58;;;;;;;21.70;13.30;;;;;;;8.07;100.00;102662.38;5050732;28;20103;-71
2021/03/23 03:57:23;;;;;;;17.65;12.57;;;;;;;8.07;100.00;102656.94;5051162;28;20048;-72
2021/03/23 03:59:49;;;;;;;16.60;13.05;;;;;;;8.07;100.00;102656.09;5050999;28;20044;-72
2021/03/23 04:02:16;;;;;;;18.58;12.55;;;;;;;8.07;100.00;102662.38;5049603;28;20132;-72
2021/03/23 04:04:44;;;;;;;18.50;13.32;;;;;;;8.07;100.00;102656.94;5050879;28;20032;-72
2021/03/23 04:07:10;;;;;;;16.13;12.00;;;;;;;8.08;100.00;102653.19;5051190;28;20402;-71
2021/03/23 04:09:36;;;;;;;19.48;12.77;;;;;;;8.09;100.00;102643.97;5050835;28;20041;-72
2021/03/23 04:12:02;;;;;;;18.38;13.07;;;;;;;8.12;100.00;102651.78;5050894;28;20049;-72
2021/03/23 04:14:29;;;;;;;17.50;12.82;;;;;;;8.13;100.00;102645.31;5051267;28;20483;-72
2021/03/23 04:16:54;;;;;;;21.38;14.27;;;;;;;8.15;100.00;102647.84;5050802;28;20037;-72
2021/03/23 04:19:20;;;;;;;18.02;12.02;;;;;;;8.16;100.00;102650.41;5050760;28;20044;-72
2021/03/23 04:21:46;;;;;;;18.50;13.20;;;;;;;8.19;100.00;102645.63;5050668;28;20033;-72
2021/03/23 04:24:11;;;;;;;18.65;10.77;;;;;;;8.22;100.00;102646.09;5050297;28;20037;-71
2021/03/23 04:26:37;;;;;;;13.48;9.93;;;;;;;8.27;100.00;102653.72;5050633;28;20045;-72
2021/03/23 04:29:03;;;;;;;16.13;9.52;;;;;;;8.35;100.00;102649.09;5050629;28;20056;-72
2021/03/23 04:31:47;;;;;;;11.68;8.00;;;;;;;8.46;100.00;102656.81;5050609;28;20471;-72
2021/03/23 04:34:14;;;;;;;9.60;7.23;;;;;;;8.55;100.00;102649.44;5049372;28;20048;-72
2021/03/23 04:36:41;;;;;;;8.85;7.53;;;;;;;8.63;100.00;102646.63;5050644;28;20032;-71
2021/03/23 04:39:09;;;;;;;10.77;6.82;;;;;;;8.70;100.00;102646.75;5049028;28;20422;-72
2021/03/23 04:41:36;;;;;;;12.20;7.55;;;;;;;8.78;100.00;102646.63;5050739;28;20166;-72
2021/03/23 04:44:02;;;;;;;11.50;6.90;;;;;;;8.85;100.00;102644.00;5050377;28;20443;-72
2021/03/23 04:46:28;;;;;;;12.15;7.57;;;;;;;8.93;100.00;102649.38;5032692;28;20045;-72
2021/03/23 04:48:55;;;;;;;8.20;6.97;;;;;;;8.96;100.00;102647.13;5050619;28;20429;-72
2021/03/23 04:51:24;;;;;;;9.60;7.18;;;;;;;8.98;100.00;102645.06;5050977;28;20033;-72
2021/03/23 04:53:56;;;;;;;9.90;7.10;;;;;;;8.99;100.00;102640.44;5050274;28;20066;-72
2021/03/23 04:56:34;;;;;;;9.80;6.55;;;;;;;9.01;100.00;102649.28;5049187;28;20064;-72
2021/03/23 04:59:00;;;;;;;10.52;6.82;;;;;;;9.05;100.00;102645.16;5050311;28;20506;-72
2021/03/23 05:01:26;;;;;;;12.40;7.57;;;;;;;9.05;100.00;102640.56;5050402;28;20036;-72
2021/03/23 05:03:59;;;;;;;12.25;7.60;;;;;;;9.06;100.00;102642.25;5050190;28;20133;-72
2021/03/23 05:06:26;;;;;;;8.50;7.15;;;;;;;9.09;100.00;102641.03;5049573;28;20041;-72
2021/03/23 05:08:52;;;;;;;9.55;7.10;;;;;;;9.13;100.00;102642.34;5054249;28;20041;-72
2021/03/23 05:11:27;;;;;;;7.97;6.47;;;;;;;9.13;100.00;102636.03;5054488;28;20087;-72
2021/03/23 05:13:53;;;;;;;7.97;6.40;;;;;;;9.15;100.00;102639.41;5054229;28;20091;-72
2021/03/23 05:16:19;;;;;;;8.68;6.25;;;;;;;9.17;100.00;102631.88;5053980;28;20429;-72
2021/03/23 05:18:45;;;;;;;9.25;7.32;;;;;;;9.18;100.00;102628.13;5054052;28;20131;-72
2021/03/23 05:21:11;;;;;;;11.38;7.55;;;;;;;9.19;100.00;102627.94;5053953;28;20179;-72
2021/03/23 05:23:37;;;;;;;8.52;7.65;;;;;;;9.20;100.00;102624.19;5053855;28;20045;-72
2021/03/23 05:26:04;;;;;;;11.95;8.07;;;;;;;9.22;100.00;102619.41;5053678;28;20052;-72
2021/03/23 05:28:29;;;;;;;13.93;8.77;;;;;;;9.24;100.00;102624.66;5053764;28;20478;-72
2021/03/23 05:30:56;;;;;;;12.50;9.32;;;;;;;9.24;100.00;102622.78;5052487;28;20041;-71
2021/03/23 05:33:23;;;;;;;16.13;10.05;;;;;;;9.23;100.00;102632.00;5053641;28;20102;-72
2021/03/23 05:35:54;;;;;;;12.95;10.00;;;;;;;9.22;100.00;102629.47;5053795;28;20037;-72
2021/03/23 05:38:20;;;;;;;15.98;10.68;;;;;;;9.22;100.00;102630.31;5053608;28;20033;-72
2021/03/23 05:40:49;;;;;;;18.17;11.95;;;;;;;9.20;100.00;102632.38;5053760;28;20037;-72
2021/03/23 05:43:29;;;;;;;19.60;11.85;;;;;;;9.17;100.00;102632.72;5053474;28;20044;-72
2021/03/23 05:45:58;;;;;;;15.93;11.48;;;;;;;9.19;100.00;102636.13;5053369;28;20484;-71
2021/03/23 05:48:29;;;;;;;13.07;11.27;;;;;;;9.19;100.00;102627.09;5053382;28;20064;-72
2021/03/23 05:51:06;;;;;;;14.75;11.07;;;;;;;9.20;100.00;102631.50;5052204;28;20399;-72
2021/03/23 05:53:44;;;;;;;14.00;11.25;;;;;;;9.24;100.00;102635.56;5051953;28;20044;-72
2021/03/23 05:56:11;;;;;;;18.13;11.38;;;;;;;9.27;100.00;102627.84;5053892;28;20044;-72
2021/03/23 05:58:41;;;;;;;14.35;11.05;;;;;;;9.32;100.00;102636.28;5051956;28;20468;-72
2021/03/23 06:01:18;;;;;;;15.55;11.23;;;;;;;9.36;100.00;102632.16;5053242;28;20060;-72
2021/03/23 06:03:49;;;;;;;16.42;12.02;;;;;;;9.42;100.00;102635.16;5053106;28;20032;-72
2021/03/23 06:06:33;;;;;;;16.08;12.55;;;;;;;9.42;100.00;102635.16;5053213;28;20566;-70
2021/03/23 06:08:59;;;;;;;15.18;11.77;;;;;;;9.40;100.00;102637.25;5051678;28;20476;-71
2021/03/23 06:11:57;;;;;;;13.85;11.30;;;;;;;9.35;100.00;102638.63;5053051;28;20033;-70
2021/03/23 06:14:44;;;;;;;14.10;11.00;;;;;;;9.35;100.00;102630.47;5053518;28;20052;-70
2021/03/23 06:17:24;;;;;;;13.38;10.93;;;;;;;9.34;100.00;102623.31;5052513;28;20057;-70
2021/03/23 06:20:02;;;;;;;15.43;10.63;;;;;;;9.36;100.00;102628.56;5052869;28;20071;-70
2021/03/23 06:22:41;;;;;;;13.82;11.07;;;;;;;9.39;100.00;102627.38;5052780;28;20029;-71
2021/03/23 06:25:29;;;;;;;15.13;11.32;;;;;;;9.39;100.00;102620.03;5052692;28;20056;-70
2021/03/23 06:28:00;;;;;;;12.68;10.57;;;;;;;9.40;100.00;102626.34;5053259;28;20056;-70
2021/03/23 06:30:44;;;;;;;13.43;11.18;;;;;;;9.43;100.00;102620.50;5051569;28;20040;-70
2021/03/23 06:33:13;;;;;;;14.73;11.07;;;;;;;9.44;100.00;102627.63;5052546;28;20051;-71
2021/03/23 06:35:45;;;;;;;13.88;11.32;;;;;;;9.44;100.00;102623.03;5051305;28;20071;-70
2021/03/23 06:38:34;;;;;;;13.90;11.32;;;;;;;9.44;100.00;102624.91;5052483;28;20171;-70
2021/03/23 06:41:18;;;;;;;14.63;11.35;;;;;;;9.43;100.00;102626.78;5051440;28;20429;-71
2021/03/23 06:43:51;;;;;;;15.52;11.18;;;;;;;9.43;100.00;102631.41;5052380;28;20486;-70
2021/03/23 06:46:32;;;;;;;18.38;12.50;;;;;;;9.44;100.00;102627.63;5052550;28;20041;-70
2021/03/23 06:49:13;;;;;;;15.15;10.73;;;;;;;9.44;100.00;102627.63;5052264;28;20041;-70
2021/03/23 06:51:51;;;;;;;17.00;10.80;;;;;;;9.44;100.00;102633.09;5052353;28;20048;-70
2021/03/23 06:54:23;;;;;;;16.65;11.18;;;;;;;9.47;100.00;102627.25;5052189;28;20033;-70
2021/03/23 06:57:11;;;;;;;13.40;10.55;;;;;;;9.49;100.00;102631.47;5052296;28;20039;-70
2021/03/23 06:59:46;;;;;;;14.55;10.75;;;;;;;9.53;100.00;102637.38;5052240;28;20120;-70
2021/03/23 07:02:26;;;;;;;;;;;;;;;9.55;100.00;102640.78;5051394;28;20036;-70
2021/03/23 07:04:52;;;;;;;15.90;11.52;;;;;;;9.55;100.00;102622.53;5052009;28;19920;-70
2021/03/23 07:07:21;;;;;;;20.10;11.52;;;;;;;9.57;100.00;102627.81;5052138;28;20047;-70
2021/03/23 07:09:55;;;;;;;17.52;12.65;;;;;;;9.59;100.00;102632.03;5052163;28;20025;-70
2021/03/23 07:12:40;;;;;;;17.70;12.52;;;;;;;9.62;100.00;102636.25;5052131;28;20045;-71
2021/03/23 07:15:16;;;;;;;18.83;13.17;;;;;;;9.66;100.00;102632.09;5050738;28;20033;-71
2021/03/23 07:17:45;;;;;;;22.42;14.00;;;;;;;9.69;100.00;102642.63;5050924;28;20040;-71
2021/03/23 07:20:35;;;;;;;21.48;13.57;;;;;;;9.71;100.00;102629.63;5051999;28;20143;-70
2021/03/23 07:23:22;;;;;;;22.08;13.68;;;;;;;9.73;100.00;102627.56;5053990;28;20045;-70
2021/03/23 07:25:48;;;;;;;25.50;13.75;;;;;;;9.74;100.00;102633.88;5053219;28;20057;-70
2021/03/23 07:28:26;;;;;;;17.95;13.10;;;;;;;9.74;100.00;102622.97;5051822;28;20043;-70
2021/03/23 07:31:11;;;;;;;24.40;14.40;;;;;;;9.74;100.00;102623.81;5051467;28;20036;-70
2021/03/23 07:34:01;;;;;;;21.85;14.32;;;;;;;9.77;100.00;102619.84;5051853;28;20449;-70
2021/03/23 07:36:39;;;;;;;24.88;14.20;;;;;;;9.79;100.00;102626.78;5050352;28;20036;-70
2021/03/23 07:39:09;;;;;;;18.88;12.80;;;;;;;9.82;100.00;102628.28;5051736;28;20114;-70
2021/03/23 07:41:57;;;;;;;22.40;14.82;;;;;;;9.86;100.00;102619.50;5051648;28;20071;-70
2021/03/23 07:44:41;;;;;;;21.67;14.52;;;;;;;9.89;100.00;102621.00;5050040;28;20044;-70
2021/03/23 07:47:34;;;;;;;21.42;13.65;;;;;;;9.94;100.00;102624.84;5051650;28;20443;-70
2021/03/23 07:50:22;;;;;;;21.98;14.05;;;;;;;10.00;100.00;102625.94;5051579;28;20480;-70
2021/03/23 07:53:40;;;;;;;21.60;13.50;;;;;;;10.04;100.00;102629.13;5051820;28;20032;-70
2021/03/23 07:56:44;;;;;;;18.02;13.77;;;;;;;10.10;100.00;102633.84;5052281;28;20049;-70
2021/03/23 07:59:24;;;;;;;19.02;13.95;;;;;;;10.13;100.00;102633.44;5057759;28;20064;-71
2021/03/23 08:01:58;;;;;;;21.05;14.95;;;;;;;10.16;100.00;102633.03;5051377;28;20036;-71
2021/03/23 08:04:47;;;;;;;19.60;14.45;;;;;;;10.19;100.00;102621.72;5051479;28;20131;-70
2021/03/23 08:07:27;;;;;;;26.13;15.45;;;;;;;10.24;100.00;102628.34;5051344;28;20072;-70
2021/03/23 08:10:25;;;;;;;25.23;16.75;;;;;;;10.28;100.00;102631.50;5051109;28;20059;-70
2021/03/23 08:13:09;;;;;;;28.02;16.42;;;;;;;10.36;100.00;102628.63;5049867;28;20029;-70
2021/03/23 08:15:58;;;;;;;26.48;16.67;;;;;;;10.39;100.00;102630.13;5049913;28;20032;-71
2021/03/23 08:18:42;;;;;;;27.73;14.65;;;;;;;10.42;100.00;102633.31;5051112;28;20075;-70
2021/03/23 08:21:21;;;;;;;23.55;13.73;;;;;;;10.46;100.00;102639.22;5051125;28;20111;-71
2021/03/23 08:24:10;;;;;;;17.25;11.70;;;;;;;10.42;100.00;102633.31;5051027;28;20036;-70
2021/03/23 08:27:01;;;;;;;19.25;10.68;;;;;;;10.43;100.00;102624.09;5049530;28;20414;-70
2021/03/23 08:29:27;;;;;;;15.70;10.30;;;;;;;10.46;100.00;102637.34;5051104;28;20039;-70
2021/03/23 08:31:58;;;;;;;20.83;10.25;;;;;;;10.47;100.00;102641.75;5050825;28;20041;-71
2021/03/23 08:34:32;;;;;;;17.55;9.48;;;;;;;10.50;100.00;102641.38;5050853;28;20484;-70
2021/03/23 08:37:10;;;;;;;23.33;10.80;;;;;;;10.51;100.00;102643.06;5050867;28;20029;-70
2021/03/23 08:39:57;;;;;;;19.38;10.93;;;;;;;10.52;100.00;102650.19;5050885;28;20383;-70
2021/03/23 08:42:26;;;;;;;29.17;12.02;;;;;;;10.53;100.00;102645.59;5055079;28;20363;-70
2021/03/23 08:44:56;;;;;;;22.95;11.23;;;;;;;10.55;100.00;102644.34;5054770;28;20036;-71
2021/03/23 08:47:35;;;;;;;20.52;11.57;;;;;;;10.58;100.00;102648.56;5054842;28;20033;-70
2021/03/23 08:50:08;;;;;;;16.05;10.20;;;;;;;10.62;100.00;102644.41;5054311;28;20035;-68
2021/03/23 08:52:40;;;;;;;18.90;10.80;;;;;;;10.67;100.00;102643.81;5054541;28;20036;-71
2021/03/23 08:55:25;;;;;;;21.20;10.27;;;;;;;10.71;100.00;102647.81;5054638;28;20781;-70
2021/03/23 08:58:07;;;;;;;24.35;12.35;;;;;;;10.75;100.00;102649.09;5053798;28;20372;-70
2021/03/23 09:00:41;;;;;;;27.55;13.18;;;;;;;10.83;100.00;102643.50;5054316;28;20051;-69
2021/03/23 09:03:06;;;;;;;25.40;14.98;;;;;;;10.88;100.00;102651.94;5054139;28;20055;-69
2021/03/23 09:05:53;;;;;;;27.77;14.32;;;;;;;10.90;100.00;102646.28;5054128;28;20483;-71
2021/03/23 09:08:36;;;;;;;24.90;13.80;;;;;;;10.88;100.00;102649.22;5053356;28;20091;-70
2021/03/23 09:11:07;;;;;;;26.52;15.20;;;;;;;10.85;100.00;102653.19;5052469;28;20028;-68
2021/03/23 09:13:36;;;;;;;23.05;14.30;;;;;;;10.83;100.00;102651.72;5054082;28;20041;-68
2021/03/23 09:16:16;;;;;;;27.55;14.60;;;;;;;10.78;100.00;102651.47;5054315;28;20476;-70
2021/03/23 09:19:01;;;;;;;32.03;14.23;;;;;;;10.68;100.00;102650.97;5054291;28;20108;-71
2021/03/23 09:21:52;;;;;;;30.13;15.32;;;;;;;10.63;100.00;102650.72;5054400;28;20115;-71
2021/03/23 09:24:25;;;;;;;31.52;16.85;;;;;;;10.58;100.00;102652.13;5053720;28;20029;-71
2021/03/23 09:26:52;;;;;;;27.80;15.88;;;;;;;10.51;100.00;102653.97;5054227;28;20041;-70
2021/03/23 09:29:26;;;;;;;38.08;16.52;;;;;;;10.47;100.00;102647.22;5052835;28;20048;-71
2021/03/23 09:31:52;;;;;;;;;;;;;;;10.49;100.00;102655.22;5054456;28;20442;-71
2021/03/23 09:34:55;;;;;;;29.63;17.13;;;;;;;10.46;100.00;102661.94;5053891;28;19921;-70
2021/03/23 09:37:41;;;;;;;32.15;16.73;;;;;;;10.44;100.00;102664.03;5053818;28;20029;-70
2021/03/23 09:40:22;;;;;;;33.75;17.45;;;;;;;10.46;100.00;102661.09;5052417;28;20056;-70
2021/03/23 09:43:21;;;;;;;32.58;17.58;;;;;;;10.46;100.00;102661.94;5054093;28;20383;-71
2021/03/23 09:45:49;;;;;;;33.75;18.27;;;;;;;10.46;100.00;102661.94;5053549;28;20063;-70
2021/03/23 09:48:44;;;;;;;32.60;17.52;;;;;;;10.47;100.00;102671.81;5053508;28;20045;-70
2021/03/23 09:51:40;;;;;;;34.90;17.60;;;;;;;10.49;100.00;102672.47;5053558;28;20087;-71
2021/03/23 09:54:16;;;;;;;33.92;18.83;;;;;;;10.52;100.00;102666.59;5052829;28;20036;-71
2021/03/23 09:56:46;;;;;;;31.27;16.98;;;;;;;10.58;100.00;102665.78;5053365;28;20057;-71
2021/03/23 09:59:16;;;;;;;42.40;19.42;;;;;;;10.62;100.00;102669.00;5053738;28;20028;-71
2021/03/23 10:01:58;;;;;;;37.13;19.52;;;;;;;10.68;100.00;102670.94;5053420;28;20029;-71
2021/03/23 10:04:38;;;;;;;36.15;18.45;;;;;;;10.70;100.00;102668.00;5053043;28;20051;-70
2021/03/23 10:07:07;;;;;;;42.63;18.45;;;;;;;10.73;100.00;102667.59;5053744;28;20040;-71
2021/03/23 10:09:35;;;;;;;35.78;17.83;;;;;;;10.77;100.00;102674.38;5053097;28;20037;-71
2021/03/23 10:12:03;;;;;;;33.95;16.88;;;;;;;10.80;100.00;102668.50;5052919;28;20047;-71
2021/03/23 10:14:28;;;;;;;37.13;18.20;;;;;;;10.88;100.00;102671.91;5052921;28;20127;-71
2021/03/23 10:17:20;;;;;;;41.10;18.05;;;;;;;10.91;100.00;102662.47;5051303;28;20128;-71
2021/03/23 10:19:52;;;;;;;34.05;18.15;;;;;;;10.94;100.00;102673.03;5034758;28;20147;-70
2021/03/23 10:22:29;;;;;;;37.78;16.75;;;;;;;10.95;100.00;102665.69;5032916;28;20398;-70
2021/03/23 10:24:58;;;;;;;32.60;17.70;;;;;;;10.99;100.00;102667.81;5032539;28;20045;-72
2021/03/23 10:27:31;;;;;;;34.88;18.40;;;;;;;11.08;100.00;102666.59;5032824;28;20037;-70
2021/03/23 10:30:28;;;;;;;36.72;17.17;;;;;;;11.15;100.00;102659.28;5032840;28;20061;-71
2021/03/23 10:32:56;;;;;;;31.17;15.38;;;;;;;11.22;100.00;102651.09;5032878;28;20448;-71
2021/03/23 10:35:39;;;;;;;39.88;17.60;;;;;;;11.26;100.00;102657.84;5032500;28;20468;-70
2021/03/23 10:38:24;;;;;;;34.97;16.95;;;;;;;11.33;100.00;102657.91;5032789;28;20091;-70
2021/03/23 10:40:55;;;;;;;38.83;17.55;;;;;;;11.40;100.00;102658.75;5032516;28;20474;-72
2021/03/23 10:43:30;;;;;;;41.45;17.65;;;;;;;11.47;100.00;102643.25;5032350;28;20425;-72
2021/03/23 10:46:00;;;;;;;34.92;16.63;;;;;;;11.55;100.00;102654.00;5031000;28;20038;-71
2021/03/23 10:48:32;;;;;;;36.40;16.45;;;;;;;11.68;100.00;102645.84;5032582;28;20033;-71
2021/03/23 10:51:16;;;;;;;33.00;17.60;;;;;;;11.81;100.00;102644.22;5032310;28;20039;-71
2021/03/23 10:53:57;;;;;;;44.40;17.23;;;;;;;11.81;100.00;102646.97;5032229;28;20029;-71
2021/03/23 10:56:30;;;;;;;36.92;15.70;;;;;;;11.92;100.00;102641.72;5032322;28;20514;-72
2021/03/23 10:59:18;;;;;;;40.20;17.52;;;;;;;11.97;100.00;102646.56;5030910;28;20047;-71
2021/03/23 11:02:15;;;;;;;36.97;17.15;;;;;;;12.05;100.00;102643.66;5032287;28;20033;-72
2021/03/23 11:05:11;;;;;;;35.70;17.40;;;;;;;12.21;100.00;102646.00;5031248;28;20026;-71
2021/03/23 11:08:01;;;;;;;36.85;17.38;;;;;;;12.44;100.00;102639.25;5032072;28;20440;-72
2021/03/23 11:10:32;;;;;;;38.33;16.13;;;;;;;12.41;100.00;102647.91;5032115;28;20034;-72
2021/03/23 11:12:59;;;;;;;37.80;15.73;;;;;;;12.25;100.00;102647.25;5031935;28;20041;-72
2021/03/23 11:15:25;;;;;;;37.67;16.73;;;;;;;12.14;100.00;102647.84;5031754;28;20041;-71
2021/03/23 11:17:51;;;;;;;33.00;15.82;;;;;;;12.14;100.00;102642.38;5032100;28;20045;-71
2021/03/23 11:20:37;;;;;;;38.53;16.55;;;;;;;12.21;100.00;102643.25;5032222;28;20472;-71
2021/03/23 11:23:12;;;;;;;36.88;16.73;;;;;;;12.37;100.00;102642.00;5031812;28;20137;-72
2021/03/23 11:25:38;;;;;;;32.92;15.93;;;;;;;12.51;100.00;102640.13;5031453;28;20049;-71
2021/03/23 11:28:04;;;;;;;34.00;15.50;;;;;;;12.57;100.00;102631.88;5031570;28;20076;-71
2021/03/23 11:30:30;;;;;;;37.40;15.93;;;;;;;12.80;100.00;102628.69;5030127;28;20041;-72
2021/03/23 11:32:56;;;;;;;35.65;14.90;;;;;;;13.12;100.00;102634.31;5030223;28;20033;-71
2021/03/23 11:35:23;;;;;;;32.72;15.20;;;;;;;13.28;100.00;102642.09;5031456;28;20388;-72